createdAt,value
2019-03-20T00:02:11.879Z,4.28
2019-03-20T00:04:49.574Z,3.80
2019-03-20T00:07:17.490Z,4.14
2019-03-20T00:09:46.601Z,4.22
2019-03-20T00:12:15.659Z,4.25
2019-03-20T00:14:46.756Z,4.24
2019-03-20T00:17:15.993Z,4.01
2019-03-20T00:19:45.099Z,4.05
2019-03-20T00:22:15.344Z,4.03
2019-03-20T00:24:44.440Z,4.15
2019-03-20T00:27:16.058Z,3.99
2019-03-20T00:29:47.684Z,4.01
2019-03-20T00:32:19.151Z,4.01
2019-03-20T00:34:48.243Z,4.20
2019-03-20T00:37:17.473Z,4.38
2019-03-20T00:39:46.513Z,4.34
2019-03-20T00:42:15.618Z,4.23
2019-03-20T00:44:50.577Z,4.56
2019-03-20T00:47:23.817Z,4.27
2019-03-20T00:49:52.932Z,4.52
2019-03-20T00:52:25.749Z,4.50
2019-03-20T00:55:00.983Z,4.49
2019-03-20T00:57:26.052Z,4.47
2019-03-20T00:59:59.831Z,4.58
2019-03-20T01:02:28.920Z,4.28
2019-03-20T01:04:58.009Z,4.21
2019-03-20T01:07:27.093Z,4.14
2019-03-20T01:09:56.170Z,4.11
2019-03-20T01:12:25.262Z,4.13
2019-03-20T01:14:55.809Z,4.23
2019-03-20T01:17:26.424Z,4.22
2019-03-20T01:19:55.659Z,4.14
2019-03-20T01:22:25.733Z,4.13
2019-03-20T01:24:58.241Z,1.96
2019-03-20T01:27:27.630Z,4.05
2019-03-20T01:29:57.816Z,4.13
2019-03-20T01:32:26.917Z,3.76
2019-03-20T01:34:56.975Z,4.30
2019-03-20T01:37:26.135Z,4.30
2019-03-20T01:39:55.186Z,4.42
2019-03-20T01:42:25.856Z,5.07
2019-03-20T01:44:55.025Z,4.93
2019-03-20T01:47:24.098Z,4.67
2019-03-20T01:49:53.177Z,4.93
2019-03-20T01:52:22.474Z,4.92
2019-03-20T01:54:51.953Z,5.30
2019-03-20T01:57:24.465Z,5.07
2019-03-20T01:59:54.885Z,5.20
2019-03-20T02:02:26.548Z,5.43
2019-03-20T02:04:55.699Z,0.51
2019-03-20T02:07:25.722Z,4.58
2019-03-20T02:09:54.796Z,3.03
2019-03-20T02:12:25.717Z,5.05
2019-03-20T02:14:55.095Z,4.83
2019-03-20T02:17:26.051Z,4.77
2019-03-20T02:19:55.207Z,4.98
2019-03-20T02:22:24.375Z,4.53
2019-03-20T02:24:53.425Z,4.83
2019-03-20T02:27:25.099Z,5.48
2019-03-20T02:29:54.155Z,5.77
2019-03-20T02:32:23.255Z,5.38
2019-03-20T02:34:53.727Z,5.55
2019-03-20T02:37:22.732Z,5.85
2019-03-20T02:39:51.809Z,6.27
2019-03-20T02:42:22.676Z,4.51
2019-03-20T02:44:52.042Z,6.64
2019-03-20T02:47:21.573Z,6.49
2019-03-20T02:49:50.661Z,6.42
2019-03-20T02:52:21.149Z,6.49
2019-03-20T02:54:51.941Z,5.70
2019-03-20T02:57:20.978Z,5.37
2019-03-20T02:59:51.958Z,5.32
2019-03-20T03:02:21.034Z,5.85
2019-03-20T03:04:51.516Z,6.17
2019-03-20T03:07:23.059Z,6.06
2019-03-20T03:09:53.996Z,5.56
2019-03-20T03:12:24.166Z,5.19
2019-03-20T03:14:53.268Z,4.98
2019-03-20T03:17:22.338Z,5.22
2019-03-20T03:19:51.423Z,4.66
2019-03-20T03:22:20.500Z,4.80
2019-03-20T03:24:49.605Z,4.56
2019-03-20T03:27:18.758Z,4.73
2019-03-20T03:29:48.906Z,5.21
2019-03-20T03:32:18.178Z,5.72
2019-03-20T03:34:49.663Z,3.92
2019-03-20T03:37:19.009Z,4.99
2019-03-20T03:39:48.116Z,4.91
2019-03-20T03:42:17.253Z,4.72
2019-03-20T03:44:52.510Z,4.99
2019-03-20T03:47:23.436Z,5.16
2019-03-20T03:49:52.511Z,4.78
2019-03-20T03:52:25.290Z,4.31
2019-03-20T03:54:58.689Z,4.21
2019-03-20T03:57:25.474Z,4.12
2019-03-20T03:59:56.017Z,4.12
2019-03-20T04:02:27.199Z,4.08
2019-03-20T04:05:05.583Z,3.69
2019-03-20T04:07:35.809Z,4.13
2019-03-20T04:10:05.511Z,4.43
2019-03-20T04:12:36.294Z,3.81
2019-03-20T04:15:06.268Z,4.33
2019-03-20T04:17:38.049Z,4.43
2019-03-20T04:20:19.760Z,4.13
2019-03-20T04:22:49.132Z,3.91
2019-03-20T04:25:18.230Z,4.07
2019-03-20T04:27:48.440Z,3.66
2019-03-20T04:30:17.893Z,4.06
2019-03-20T04:32:54.289Z,4.25
2019-03-20T04:35:24.722Z,4.00
2019-03-20T04:37:53.829Z,4.28
2019-03-20T04:40:25.773Z,4.33
2019-03-20T04:42:57.434Z,4.11
2019-03-20T04:45:26.557Z,4.15
2019-03-20T04:47:56.072Z,4.32
2019-03-20T04:50:27.690Z,4.19
2019-03-20T04:52:58.169Z,3.92
2019-03-20T04:55:28.782Z,3.95
2019-03-20T04:57:57.888Z,4.19
2019-03-20T05:00:27.816Z,4.07
2019-03-20T05:02:56.934Z,4.08
2019-03-20T05:05:26.201Z,3.99
2019-03-20T05:07:56.616Z,4.36
2019-03-20T05:10:27.499Z,4.74
2019-03-20T05:12:56.699Z,4.73
2019-03-20T05:15:27.930Z,4.88
2019-03-20T05:17:57.370Z,4.88
2019-03-20T05:20:26.497Z,4.24
2019-03-20T05:22:55.636Z,4.83
2019-03-20T05:25:25.891Z,5.00
2019-03-20T05:27:55.653Z,4.01
2019-03-20T05:30:27.889Z,3.78
2019-03-20T05:33:00.723Z,3.26
2019-03-20T05:35:33.645Z,3.23
2019-03-20T05:38:05.525Z,3.11
2019-03-20T05:40:39.928Z,3.34
2019-03-20T05:43:09.024Z,2.98
2019-03-20T05:45:38.191Z,3.56
2019-03-20T05:48:07.286Z,3.65
2019-03-20T05:50:36.323Z,3.63
2019-03-20T05:53:05.719Z,3.62
2019-03-20T05:55:38.447Z,3.70
2019-03-20T05:58:07.838Z,3.68
2019-03-20T06:00:39.457Z,3.82
2019-03-20T06:03:08.644Z,3.22
2019-03-20T06:05:39.134Z,3.13
2019-03-20T06:08:11.429Z,3.25
2019-03-20T06:10:40.681Z,3.73
2019-03-20T06:13:12.883Z,3.34
2019-03-20T06:15:42.046Z,3.43
2019-03-20T06:18:12.211Z,3.21
2019-03-20T06:20:41.356Z,3.61
2019-03-20T06:23:11.262Z,3.54
2019-03-20T06:25:40.459Z,3.37
2019-03-20T06:28:14.116Z,3.22
2019-03-20T06:30:46.691Z,3.18
2019-03-20T06:33:15.894Z,3.22
2019-03-20T06:35:47.982Z,3.01
2019-03-20T06:38:19.833Z,3.46
2019-03-20T06:40:51.418Z,3.60
2019-03-20T06:43:21.244Z,4.00
2019-03-20T06:45:55.710Z,4.51
2019-03-20T06:48:25.011Z,4.42
2019-03-20T06:50:54.119Z,4.65
2019-03-20T06:53:25.764Z,5.29
2019-03-20T06:55:56.792Z,5.64
2019-03-20T06:58:26.262Z,5.98
2019-03-20T07:01:35.111Z,5.69
2019-03-20T07:04:37.541Z,6.11
2019-03-20T07:07:15.398Z,6.98
2019-03-20T07:10:10.582Z,6.26
2019-03-20T07:12:49.247Z,7.00
2019-03-20T07:15:18.686Z,6.87
2019-03-20T07:17:51.648Z,6.43
2019-03-20T07:20:23.413Z,7.32
2019-03-20T07:22:52.513Z,7.66
2019-03-20T07:25:23.286Z,7.87
2019-03-20T07:27:55.771Z,7.59
2019-03-20T07:30:24.919Z,7.62
2019-03-20T07:33:03.082Z,8.01
2019-03-20T07:35:33.934Z,8.00
2019-03-20T07:38:03.082Z,7.98
2019-03-20T07:40:33.315Z,8.60
2019-03-20T07:43:08.646Z,8.66
2019-03-20T07:45:33.248Z,8.97
2019-03-20T07:48:03.845Z,9.33
2019-03-20T07:50:33.295Z,9.65
2019-03-20T07:53:02.546Z,9.69
2019-03-20T07:55:35.200Z,9.63
2019-03-20T07:58:04.752Z,9.64
2019-03-20T08:00:42.035Z,9.36
2019-03-20T08:03:17.541Z,9.47
2019-03-20T08:05:46.772Z,10.13
2019-03-20T08:08:19.347Z,10.15
2019-03-20T08:10:51.807Z,10.34
2019-03-20T08:13:21.028Z,10.58
2019-03-20T08:15:53.814Z,10.86
2019-03-20T08:18:23.320Z,11.15
2019-03-20T08:20:54.226Z,11.05
2019-03-20T08:23:24.913Z,11.30
2019-03-20T08:25:59.597Z,11.48
2019-03-20T08:28:32.456Z,11.66
2019-03-20T08:31:09.335Z,11.52
2019-03-20T08:33:43.192Z,11.50
2019-03-20T08:36:22.015Z,11.43
2019-03-20T08:38:51.256Z,11.05
2019-03-20T08:41:20.457Z,10.96
2019-03-20T08:43:51.787Z,10.73
2019-03-20T08:46:27.388Z,10.68
2019-03-20T08:49:02.617Z,11.00
2019-03-20T08:51:31.705Z,10.95
2019-03-20T08:54:00.802Z,11.08
2019-03-20T08:56:30.077Z,10.59
2019-03-20T08:58:59.242Z,9.78
2019-03-20T09:01:29.423Z,11.48
2019-03-20T09:04:00.795Z,11.30
2019-03-20T09:06:33.103Z,11.54
2019-03-20T09:09:04.166Z,11.44
2019-03-20T09:11:36.198Z,11.42
2019-03-20T09:14:07.196Z,11.23
2019-03-20T09:16:36.240Z,11.11
2019-03-20T09:19:05.399Z,11.41
2019-03-20T09:21:34.500Z,11.36
2019-03-20T09:24:03.649Z,11.33
2019-03-20T09:26:33.991Z,11.36
2019-03-20T09:29:05.601Z,11.55
2019-03-20T09:31:34.727Z,11.50
2019-03-20T09:34:04.010Z,11.83
2019-03-20T09:36:43.050Z,11.65
2019-03-20T09:39:09.306Z,11.54
2019-03-20T09:41:38.388Z,4.94
2019-03-20T09:44:09.040Z,11.31
2019-03-20T09:46:38.123Z,11.06
2019-03-20T09:49:07.394Z,11.28
2019-03-20T09:51:37.517Z,11.29
2019-03-20T09:54:08.450Z,11.13
2019-03-20T09:56:40.488Z,11.43
2019-03-20T09:59:09.580Z,11.49
2019-03-20T10:01:42.238Z,11.62
2019-03-20T10:04:13.967Z,11.27
2019-03-20T10:06:48.384Z,11.15
2019-03-20T10:09:17.575Z,11.09
2019-03-20T10:11:46.985Z,11.27
2019-03-20T10:14:16.144Z,11.58
2019-03-20T10:16:45.238Z,11.85
2019-03-20T10:19:14.352Z,11.42
2019-03-20T10:21:46.395Z,11.35
2019-03-20T10:24:15.511Z,10.94
2019-03-20T10:26:50.061Z,11.74
2019-03-20T10:29:19.155Z,11.99
2019-03-20T10:31:48.250Z,11.96
2019-03-20T10:34:18.724Z,11.57
2019-03-20T10:36:47.817Z,11.72
2019-03-20T10:39:18.815Z,11.96
2019-03-20T10:41:50.602Z,11.68
2019-03-20T10:44:19.874Z,12.00
2019-03-20T10:46:50.776Z,11.99
2019-03-20T10:49:19.930Z,11.93
2019-03-20T10:51:50.976Z,11.88
2019-03-20T10:54:24.691Z,11.54
2019-03-20T10:56:56.724Z,11.92
2019-03-20T10:59:26.925Z,12.39
2019-03-20T11:01:57.407Z,3.77
2019-03-20T11:04:26.549Z,11.64
2019-03-20T11:07:00.027Z,11.30
2019-03-20T11:09:29.153Z,11.31
2019-03-20T11:11:59.776Z,10.51
2019-03-20T11:14:29.472Z,11.51
2019-03-20T11:16:59.068Z,11.40
2019-03-20T11:19:34.269Z,11.75
2019-03-20T11:22:04.714Z,11.30
2019-03-20T11:24:33.829Z,12.64
2019-03-20T11:27:06.338Z,12.52
2019-03-20T11:29:40.735Z,12.24
2019-03-20T11:32:09.880Z,12.29
2019-03-20T11:34:43.307Z,11.51
2019-03-20T11:37:17.154Z,11.87
2019-03-20T11:39:48.310Z,11.81
2019-03-20T11:42:19.959Z,12.18
2019-03-20T11:44:49.092Z,12.43
2019-03-20T11:47:18.436Z,12.62
2019-03-20T11:49:49.244Z,12.47
2019-03-20T11:52:18.335Z,12.21
2019-03-20T11:54:48.685Z,12.77
2019-03-20T11:57:17.822Z,12.47
2019-03-20T11:59:49.394Z,12.53
2019-03-20T12:02:27.672Z,12.22
2019-03-20T12:04:53.999Z,12.02
2019-03-20T12:07:26.589Z,12.02
2019-03-20T12:09:55.993Z,12.51
2019-03-20T12:12:28.833Z,12.42
2019-03-20T12:14:59.598Z,12.10
2019-03-20T12:17:31.577Z,12.08
2019-03-20T12:20:00.732Z,12.39
2019-03-20T12:22:32.242Z,12.89
2019-03-20T12:25:02.569Z,13.03
2019-03-20T12:27:35.821Z,12.48
2019-03-20T12:30:06.244Z,13.05
2019-03-20T12:32:35.595Z,13.65
2019-03-20T12:35:06.868Z,13.68
2019-03-20T12:37:38.372Z,12.99
2019-03-20T12:40:13.663Z,13.24
2019-03-20T12:42:44.266Z,13.30
2019-03-20T12:45:16.044Z,13.42
2019-03-20T12:47:45.396Z,13.51
2019-03-20T12:50:19.738Z,13.53
2019-03-20T12:52:50.217Z,12.19
2019-03-20T12:55:21.227Z,13.98
2019-03-20T12:57:52.160Z,15.05
2019-03-20T13:00:32.187Z,15.51
2019-03-20T13:03:02.324Z,14.73
2019-03-20T13:05:32.458Z,15.13
2019-03-20T13:08:05.847Z,14.41
2019-03-20T13:10:33.003Z,14.27
2019-03-20T13:13:05.656Z,13.45
2019-03-20T13:15:35.649Z,13.18
2019-03-20T13:18:04.794Z,13.21
2019-03-20T13:20:33.905Z,13.36
2019-03-20T13:23:05.956Z,13.44
2019-03-20T13:25:42.192Z,14.35
2019-03-20T13:28:13.732Z,14.55
2019-03-20T13:30:56.737Z,13.87
2019-03-20T13:33:26.466Z,14.04
2019-03-20T13:36:00.242Z,13.80
2019-03-20T13:38:32.973Z,13.86
2019-03-20T13:41:02.099Z,14.67
2019-03-20T13:43:31.191Z,14.20
2019-03-20T13:46:01.805Z,13.77
2019-03-20T13:48:31.403Z,13.81
2019-03-20T13:51:03.852Z,14.56
2019-03-20T13:53:46.296Z,14.67
2019-03-20T13:56:16.623Z,14.70
2019-03-20T13:58:45.770Z,14.82
2019-03-20T14:01:14.964Z,14.96
2019-03-20T14:03:48.367Z,14.94
2019-03-20T14:06:17.943Z,14.28
2019-03-20T14:08:48.859Z,13.67
2019-03-20T14:11:19.073Z,14.00
2019-03-20T14:13:48.226Z,14.44
2019-03-20T14:16:24.631Z,14.90
2019-03-20T14:18:54.109Z,15.15
2019-03-20T14:21:25.537Z,15.13
2019-03-20T14:23:56.125Z,15.24
2019-03-20T14:26:25.297Z,15.23
2019-03-20T14:28:57.603Z,14.76
2019-03-20T14:31:30.206Z,14.93
2019-03-20T14:33:59.415Z,15.24
2019-03-20T14:36:28.677Z,15.13
2019-03-20T14:38:59.877Z,15.33
2019-03-20T14:41:29.081Z,14.85
2019-03-20T14:44:01.396Z,14.96
2019-03-20T14:46:33.061Z,14.87
2019-03-20T14:49:09.272Z,14.69
2019-03-20T14:51:40.533Z,14.56
2019-03-20T14:54:14.901Z,14.17
2019-03-20T14:56:45.256Z,14.99
2019-03-20T14:59:16.999Z,15.39
2019-03-20T15:01:46.516Z,15.43
2019-03-20T15:04:15.624Z,15.48
2019-03-20T15:06:44.929Z,15.00
2019-03-20T15:09:14.550Z,14.56
2019-03-20T15:11:46.387Z,14.79
2019-03-20T15:14:15.538Z,15.70
2019-03-20T15:16:45.142Z,14.90
2019-03-20T15:19:14.683Z,14.84
2019-03-20T15:21:43.787Z,13.02
2019-03-20T15:24:13.116Z,15.15
2019-03-20T15:26:44.654Z,15.03
2019-03-20T15:29:13.762Z,15.08
2019-03-20T15:31:46.775Z,14.76
2019-03-20T15:34:15.900Z,14.74
2019-03-20T15:36:46.445Z,14.75
2019-03-20T15:39:18.026Z,14.62
2019-03-20T15:41:49.014Z,14.53
2019-03-20T15:44:18.096Z,14.82
2019-03-20T15:46:47.235Z,14.83
2019-03-20T15:49:17.603Z,10.64
2019-03-20T15:51:46.770Z,14.37
2019-03-20T15:54:15.872Z,14.77
2019-03-20T15:56:48.361Z,14.31
2019-03-20T15:59:17.581Z,14.01
2019-03-20T16:01:46.742Z,14.40
2019-03-20T16:04:16.135Z,14.48
2019-03-20T16:06:48.432Z,14.06
2019-03-20T16:09:17.784Z,14.02
2019-03-20T16:11:53.364Z,14.38
2019-03-20T16:14:24.077Z,14.41
2019-03-20T16:16:54.650Z,14.36
2019-03-20T16:19:28.319Z,14.23
2019-03-20T16:22:03.995Z,14.18
2019-03-20T16:24:37.592Z,14.01
2019-03-20T16:27:07.102Z,5.05
2019-03-20T16:29:36.255Z,13.39
2019-03-20T16:32:05.445Z,4.94
2019-03-20T16:34:34.578Z,13.68
2019-03-20T16:37:05.576Z,13.56
2019-03-20T16:39:36.133Z,13.81
2019-03-20T16:42:07.533Z,13.68
2019-03-20T16:44:38.009Z,13.85
2019-03-20T16:47:07.089Z,13.66
2019-03-20T16:49:36.179Z,13.98
2019-03-20T16:52:05.313Z,13.71
2019-03-20T16:54:36.211Z,13.73
2019-03-20T16:57:06.737Z,13.79
2019-03-20T16:59:45.091Z,13.68
2019-03-20T17:02:15.932Z,13.70
2019-03-20T17:04:48.213Z,13.91
2019-03-20T17:07:18.599Z,11.98
2019-03-20T17:09:47.749Z,13.83
2019-03-20T17:12:18.730Z,13.78
2019-03-20T17:14:51.589Z,13.75
2019-03-20T17:17:21.704Z,13.45
2019-03-20T17:19:53.569Z,13.38
2019-03-20T17:22:23.989Z,13.30
2019-03-20T17:24:53.082Z,13.21
2019-03-20T17:27:22.160Z,13.23
2019-03-20T17:29:52.842Z,13.10
2019-03-20T17:32:23.159Z,12.99
2019-03-20T17:34:53.337Z,13.14
2019-03-20T17:37:24.609Z,13.25
2019-03-20T17:39:53.744Z,13.17
2019-03-20T17:42:22.867Z,13.10
2019-03-20T17:44:55.125Z,13.08
2019-03-20T17:47:24.232Z,12.88
2019-03-20T17:49:53.630Z,12.90
2019-03-20T17:52:22.989Z,12.95
2019-03-20T17:54:54.346Z,12.98
2019-03-20T17:57:23.484Z,12.92
2019-03-20T17:59:52.594Z,7.61
2019-03-20T18:02:24.208Z,12.74
2019-03-20T18:04:58.046Z,12.79
2019-03-20T18:07:27.234Z,12.77
2019-03-20T18:09:56.335Z,12.59
2019-03-20T18:12:25.542Z,12.61
2019-03-20T18:15:00.560Z,12.71
2019-03-20T18:17:29.688Z,12.51
2019-03-20T18:20:02.003Z,12.80
2019-03-20T18:22:31.342Z,12.83
2019-03-20T18:25:01.492Z,12.31
2019-03-20T18:27:34.615Z,12.53
2019-03-20T18:30:06.148Z,12.32
2019-03-20T18:32:35.388Z,12.25
2019-03-20T18:35:04.592Z,12.27
2019-03-20T18:37:33.741Z,12.42
2019-03-20T18:40:02.946Z,12.37
2019-03-20T18:42:32.069Z,12.34
2019-03-20T18:45:02.086Z,12.33
2019-03-20T18:47:33.808Z,12.31
2019-03-20T18:50:03.849Z,12.34
2019-03-20T18:52:34.336Z,12.13
2019-03-20T18:55:03.540Z,12.10
2019-03-20T18:57:32.696Z,12.12
2019-03-20T19:00:01.944Z,12.18
2019-03-20T19:02:31.081Z,12.04
2019-03-20T19:05:00.439Z,12.15
2019-03-20T19:07:32.710Z,12.26
2019-03-20T19:10:05.679Z,12.12
2019-03-20T19:12:34.852Z,12.22
2019-03-20T19:15:06.523Z,12.20
2019-03-20T19:17:35.706Z,12.19
2019-03-20T19:20:10.933Z,12.03
2019-03-20T19:22:41.588Z,12.17
2019-03-20T19:25:13.721Z,12.12
2019-03-20T19:27:42.821Z,11.99
2019-03-20T19:30:17.154Z,11.60
2019-03-20T19:32:46.330Z,12.06
2019-03-20T19:35:17.191Z,11.72
2019-03-20T19:37:47.461Z,11.84
2019-03-20T19:40:19.010Z,12.12
2019-03-20T19:42:48.093Z,11.92
2019-03-20T19:45:17.268Z,11.84
2019-03-20T19:47:46.585Z,11.81
2019-03-20T19:50:15.734Z,11.71
2019-03-20T19:52:44.827Z,11.78
2019-03-20T19:55:16.949Z,11.70
2019-03-20T19:57:49.540Z,11.68
2019-03-20T20:00:18.867Z,11.65
2019-03-20T20:02:48.371Z,11.61
2019-03-20T20:05:20.639Z,11.60
2019-03-20T20:07:49.727Z,11.64
2019-03-20T20:10:19.262Z,11.65
2019-03-20T20:12:49.656Z,11.58
2019-03-20T20:15:24.824Z,11.56
2019-03-20T20:17:53.978Z,11.61
2019-03-20T20:20:23.134Z,11.69
2019-03-20T20:22:52.231Z,11.49
2019-03-20T20:25:21.372Z,11.56
2019-03-20T20:27:51.645Z,11.46
2019-03-20T20:30:27.382Z,11.48
2019-03-20T20:32:56.561Z,11.46
2019-03-20T20:35:25.684Z,11.46
2019-03-20T20:37:54.790Z,11.36
2019-03-20T20:40:27.959Z,11.46
2019-03-20T20:42:58.987Z,11.39
2019-03-20T20:45:28.197Z,11.42
2019-03-20T20:47:59.783Z,11.30
2019-03-20T20:50:31.862Z,11.33
2019-03-20T20:53:01.335Z,11.49
2019-03-20T20:55:30.448Z,11.44
2019-03-20T20:57:59.737Z,11.45
2019-03-20T21:00:31.823Z,11.30
2019-03-20T21:03:04.019Z,11.35
2019-03-20T21:05:33.180Z,11.45
2019-03-20T21:08:02.328Z,11.39
2019-03-20T21:10:31.415Z,11.21
2019-03-20T21:13:02.344Z,11.08
2019-03-20T21:15:48.983Z,10.81
2019-03-20T21:18:56.975Z,-0.51
2019-03-20T21:21:52.865Z,10.40
2019-03-20T21:24:32.787Z,10.64
2019-03-20T21:27:47.007Z,10.51
2019-03-20T21:30:51.249Z,10.28
2019-03-20T21:34:11.672Z,10.45
2019-03-20T21:37:32.298Z,9.47
2019-03-20T21:40:07.258Z,10.47
2019-03-20T21:43:38.077Z,10.56
2019-03-20T21:46:56.011Z,9.67
2019-03-20T21:49:25.809Z,10.24
2019-03-20T21:51:58.392Z,10.09
2019-03-20T21:54:54.989Z,10.17
2019-03-20T21:57:45.004Z,10.15
2019-03-20T22:00:47.102Z,9.94
2019-03-20T22:03:16.664Z,9.31
2019-03-20T22:06:24.041Z,9.50
2019-03-20T22:08:53.841Z,9.44
2019-03-20T22:12:08.771Z,9.77
2019-03-20T22:14:38.443Z,9.41
2019-03-20T22:18:01.099Z,9.71
2019-03-20T22:21:08.366Z,9.48
2019-03-20T22:24:13.525Z,9.65
2019-03-20T22:27:30.200Z,9.96
2019-03-20T22:29:59.825Z,10.03
2019-03-20T22:33:22.344Z,9.78
2019-03-20T22:36:19.030Z,9.63
2019-03-20T22:39:34.074Z,10.09
2019-03-20T22:42:59.227Z,10.05
2019-03-20T22:46:08.996Z,9.77
2019-03-20T22:49:23.107Z,9.76
2019-03-20T22:52:18.188Z,9.10
2019-03-20T22:55:52.911Z,9.25
2019-03-20T22:58:47.563Z,8.91
2019-03-20T23:02:06.092Z,9.06
2019-03-20T23:04:44.219Z,9.34
2019-03-20T23:07:23.193Z,8.67
2019-03-20T23:09:54.591Z,9.17
2019-03-20T23:12:27.631Z,8.96
2019-03-20T23:14:59.846Z,9.10
2019-03-20T23:17:30.991Z,9.07
2019-03-20T23:20:05.296Z,8.94
2019-03-20T23:22:38.995Z,9.18
2019-03-20T23:25:11.656Z,9.22
2019-03-20T23:27:43.975Z,9.38
2019-03-20T23:30:19.843Z,9.17
2019-03-20T23:32:50.905Z,9.03
2019-03-20T23:35:21.701Z,8.53
2019-03-20T23:37:51.403Z,8.33
2019-03-20T23:40:21.016Z,8.43
2019-03-20T23:42:52.543Z,8.47
2019-03-20T23:45:22.525Z,8.91
2019-03-20T23:48:19.868Z,8.92
2019-03-20T23:50:54.792Z,8.75
2019-03-20T23:53:26.607Z,8.32
2019-03-20T23:55:55.973Z,8.13
2019-03-20T23:58:28.395Z,8.86
